Latest Coastal Weather Observations for Edithburgh

IDS60701

Issued at 11:55 pm CDT Saturday 25 October 2014 (issued every 10 minutes, with the page automatically refreshed every 10 minutes)

About coastal observations | Map of coastal stations | Coastal observations for SA | Marine services | Other Formats
Station Details ID: 022046 Name: EDITHBURGH Lat: -35.11 Lon: 137.74 Height: 6.0 m
Data from the previous 72 hours. | See also: Recent months at Edithburgh
Date/Time
CDT
Temp

°C
Wind Pressure Rain
since 9am
mm
Weather Cloud Vis
km
Sea
Height
m
Swell
Dir
 
Speed
knots
Gust
knots
hPa Trend Height
m
Period
s
Dir
25/11:30pm 15.0 SE 7 9 1015.0 - 0.0 - - - - - - -
25/11:00pm 15.0 SSE 8 12 1015.6 - 0.0 - - - - - - -
25/10:30pm 15.0 SSE 10 13 1015.7 - 0.0 - - - - - - -
25/10:00pm 14.9 SE 11 13 1015.8 - 0.0 - - - - - - -
25/09:30pm 15.1 SSE 11 14 1016.4 - 0.0 - - - - - - -
25/09:00pm 15.2 S 10 14 1016.7 - 0.0 - - - - - - -
25/08:30pm 15.3 S 10 14 1016.4 - 0.0 - - - - - - -
25/08:00pm 15.5 S 9 13 1016.1 - 0.0 - - - - - - -
25/07:30pm 15.9 S 8 11 1015.9 - 0.0 - - - - - - -
25/07:00pm 16.3 S 7 11 1015.9 - 0.0 - - - - - - -
25/06:30pm 17.3 S 7 9 1015.7 - 0.0 - - - - - - -
25/06:00pm 17.4 S 10 12 1015.7 - 0.0 - - - - - - -
25/05:30pm 17.7 S 10 12 1015.5 - 0.0 - - - - - - -
25/05:00pm 18.4 S 9 12 1015.6 - 0.0 - - - - - - -
25/04:30pm 18.3 S 9 11 1015.7 - 0.0 - - - - - - -
25/04:00pm 18.1 S 8 12 1015.9 - 0.0 - - - - - - -
25/03:30pm 18.8 S 8 13 1015.9 - 0.0 - - - - - - -
25/03:00pm 19.1 SSW 8 12 1016.2 - 0.0 - - - - - - -
25/02:30pm 19.5 SSW 10 13 1016.4 - 0.0 - - - - - - -
25/02:00pm 20.0 SSW 9 13 1016.6 - 0.0 - - - - - - -
25/01:30pm 18.8 S 8 12 1016.6 - 0.0 - - - - - - -
25/01:00pm 18.4 SSW 9 13 1016.9 - 0.0 - - - - - - -
25/12:30pm 19.4 S 8 13 1017.2 - 0.0 - - - - - - -
25/12:00pm 18.3 SSW 8 14 1017.4 - 0.0 - - - - - - -
25/11:30am 18.1 S 8 12 1017.6 - 0.0 - - - - - - -
25/11:00am 18.0 S 8 11 1017.5 - 0.0 - - - - - - -
25/10:30am 17.9 S 9 13 1017.7 - 0.0 - - - - - - -
25/10:00am 17.7 S 9 12 1017.7 - 0.0 - - - - - - -
25/09:30am 17.4 S 8 11 1017.8 - 0.0 - - - - - - -
25/09:00am 16.9 S 10 13 1017.8 - 0.0 - - - - - - -
25/08:30am 16.9 S 10 14 1017.8 - 0.0 - - - - - - -
25/08:00am 16.6 S 9 14 1017.5 - 0.0 - - - - - - -
25/07:30am 15.6 S 10 13 1017.3 - 0.0 - - - - - - -
25/07:00am 15.1 S 8 11 1016.8 - 0.0 - - - - - - -
25/06:30am 14.6 S 6 7 1016.4 - 0.0 - - - - - - -
25/06:00am 14.8 S 6 8 1015.9 - 0.0 - - - - - - -
25/05:30am 15.2 SSE 11 15 1015.6 - 0.0 - - - - - - -
25/05:00am 15.3 SSE 10 14 1015.4 - 0.0 - - - - - - -
25/04:30am 15.1 SSE 9 11 1015.1 - 0.0 - - - - - - -
25/04:00am 14.9 S 7 9 1014.9 - 0.0 - - - - - - -
25/03:30am 14.6 SSE 4 6 1014.9 - 0.0 - - - - - - -
25/03:00am 15.3 S 8 10 1015.0 - 0.0 - - - - - - -
25/02:30am 15.3 SSE 9 11 1015.1 - 0.0 - - - - - - -
25/02:00am 15.4 SSE 10 14 1015.2 - 0.0 - - - - - - -
25/01:30am 15.4 SSE 12 15 1015.2 - 0.0 - - - - - - -
25/01:00am 15.4 S 14 18 1015.5 - 0.0 - - - - - - -
25/12:30am 15.4 S 14 19 1015.8 - 0.0 - - - - - - -
25/12:00am 15.4 S 14 20 1015.9 - 0.0 - - - - - - -
 
Date/Time
CDT
Temp

°C
Wind Pressure Rain
since 9am
mm
Weather Cloud Vis
km
Sea
Height
m
Swell
Dir
 
Speed
knots
Gust
knots
hPa Trend Height
m
Period
s
Dir
24/11:30pm 15.5 S 15 19 1016.0 - 0.0 - - - - - - -
24/11:00pm 15.5 S 14 18 1016.0 - 0.0 - - - - - - -
24/10:30pm 15.6 S 12 15 1016.0 - 0.0 - - - - - - -
24/10:00pm 15.5 S 11 15 1015.9 - 0.0 - - - - - - -
24/09:30pm 15.7 S 12 17 1015.5 - 0.0 - - - - - - -
24/09:00pm 15.9 S 13 18 1015.3 - 0.0 - - - - - - -
24/08:30pm 16.3 S 12 19 1014.6 - 0.0 - - - - - - -
24/08:00pm 16.6 S 14 18 1014.2 - 0.0 - - - - - - -
24/07:30pm 17.2 S 12 17 1013.9 - 0.0 - - - - - - -
24/07:00pm 18.0 S 12 16 1013.7 - 0.0 - - - - - - -
24/06:30pm 19.3 S 8 11 1013.3 - 0.0 - - - - - - -
24/06:00pm 19.8 SSW 10 13 1013.3 - 0.0 - - - - - - -
24/05:30pm 20.2 SSW 12 15 1013.3 - 0.0 - - - - - - -
24/05:00pm 22.0 SSW 9 13 1012.8 - 0.0 - - - - - - -
24/04:30pm 22.2 SSW 11 15 1012.9 - 0.0 - - - - - - -
24/04:00pm 24.1 SW 10 13 1012.9 - 0.0 - - - - - - -
24/03:30pm 24.6 SSW 9 14 1013.1 - 0.0 - - - - - - -
24/03:00pm 24.2 S 6 12 1013.3 - 0.0 - - - - - - -
24/02:30pm 23.4 NE 6 7 1013.2 - 0.0 - - - - - - -
24/02:00pm 22.5 NE 6 7 1013.5 - 0.0 - - - - - - -
24/01:30pm 21.4 NE 7 9 1013.6 - 0.0 - - - - - - -
24/01:00pm 21.3 NE 8 11 1013.8 - 0.0 - - - - - - -
24/12:30pm 20.5 NE 9 11 1014.1 - 0.0 - - - - - - -
24/12:00pm 20.1 ENE 9 11 1014.0 - 0.0 - - - - - - -
24/11:30am 20.5 NE 8 10 1014.3 - 0.0 - - - - - - -
24/11:00am 20.9 NE 6 8 1014.5 - 0.0 - - - - - - -
24/10:30am 20.4 ENE 5 7 1014.7 - 0.0 - - - - - - -
24/10:00am 20.0 NE 5 6 1014.7 - 0.0 - - - - - - -
24/09:30am 20.3 NE 5 6 1014.7 - 0.0 - - - - - - -
24/09:00am 19.3 NE 5 7 1014.5 - 0.0 - - - - - - -
24/08:30am 17.1 N 3 6 1014.3 - 0.0 - - - - - - -
24/08:00am 13.7 N 2 2 1014.2 - 0.0 - - - - - - -
24/07:30am 12.2 N 2 4 1013.9 - 0.0 - - - - - - -
24/07:00am 12.2 N 3 4 1013.4 - 0.0 - - - - - - -
24/06:30am 11.1 NNW 2 3 1013.1 - 0.0 - - - - - - -
24/06:00am 11.1 NNW 4 6 1012.8 - 0.0 - - - - - - -
24/05:30am 11.6 NNW 5 5 1012.6 - 0.0 - - - - - - -
24/05:00am 14.6 N 4 5 1012.4 - 0.0 - - - - - - -
24/04:30am 14.7 NNE 5 8 1012.5 - 0.0 - - - - - - -
24/04:00am 14.2 NE 7 9 1011.7 - 0.0 - - - - - - -
24/03:30am 13.1 NE 4 6 1012.5 - 0.0 - - - - - - -
24/03:00am 11.3 ENE 2 3 1013.0 - 0.0 - - - - - - -
24/02:30am 10.8 E 2 3 1012.9 - 0.0 - - - - - - -
24/02:00am 11.8 CALM 0 0 1013.8 - 0.0 - - - - - - -
24/01:30am 12.6 CALM 0 1 1014.4 - 0.0 - - - - - - -
24/01:00am 13.6 E 2 4 1014.9 - 0.0 - - - - - - -
24/12:30am 13.6 SSE 4 5 1015.1 - 0.0 - - - - - - -
24/12:00am 13.8 S 5 7 1015.0 - 0.0 - - - - - - -
 
Date/Time
CDT
Temp

°C
Wind Pressure Rain
since 9am
mm
Weather Cloud Vis
km
Sea
Height
m
Swell
Dir
 
Speed
knots
Gust
knots
hPa Trend Height
m
Period
s
Dir
23/11:30pm 14.2 S 5 7 1015.3 - 0.0 - - - - - - -
23/11:00pm 14.5 S 4 5 1015.7 - 0.0 - - - - - - -
23/10:30pm 14.4 SSW 5 7 1015.9 - 0.0 - - - - - - -
23/10:00pm 14.5 S 6 7 1015.8 - 0.0 - - - - - - -
23/09:30pm 14.6 S 7 9 1015.5 - 0.0 - - - - - - -
23/09:00pm 14.9 S 8 11 1015.7 - 0.0 - - - - - - -
23/08:30pm 14.9 S 8 11 1015.6 - 0.0 - - - - - - -
23/08:00pm 14.9 S 8 11 1015.7 - 0.0 - - - - - - -
23/07:30pm 15.3 S 10 12 1015.2 - 0.0 - - - - - - -
23/07:00pm 16.2 S 8 13 1015.3 - 0.0 - - - - - - -
23/06:30pm 16.2 S 8 11 1015.3 - 0.0 - - - - - - -
23/06:00pm 17.1 SSW 11 14 1015.1 - 0.0 - - - - - - -
23/05:30pm 16.5 S 8 12 1015.0 - 0.0 - - - - - - -
23/05:00pm 17.2 S 10 13 1014.8 - 0.0 - - - - - - -
23/04:30pm 17.5 S 11 14 1014.9 - 0.0 - - - - - - -
23/04:00pm 17.4 SSW 10 13 1015.3 - 0.0 - - - - - - -
23/03:30pm 17.8 S 10 12 1015.4 - 0.0 - - - - - - -
23/03:00pm 17.9 S 9 12 1015.5 - 0.0 - - - - - - -
23/02:30pm 17.8 S 8 12 1015.9 - 0.0 - - - - - - -
23/02:00pm 17.8 S 7 11 1016.2 - 0.0 - - - - - - -
23/01:30pm 17.7 SSE 6 10 1016.5 - 0.0 - - - - - - -
23/01:00pm 17.7 S 6 9 1016.9 - 0.0 - - - - - - -
23/12:30pm 17.0 SE 6 10 1017.2 - 0.0 - - - - - - -
23/12:00pm 17.3 SSE 6 8 1017.6 - 0.0 - - - - - - -
23/11:30am 16.6 SSE 5 8 1017.8 - 0.0 - - - - - - -
23/11:00am 16.2 SE 5 7 1018.3 - 0.0 - - - - - - -
23/10:30am 16.4 SSE 6 10 1018.2 - 0.0 - - - - - - -
23/10:00am 15.8 SSE 9 12 1018.3 - 0.0 - - - - - - -
23/09:30am 15.5 SE 8 11 1018.6 - 0.0 - - - - - - -
23/09:00am 15.5 SE 8 11 1018.5 - 0.0 - - - - - - -
23/08:30am 15.2 SSE 7 12 1018.8 - 0.0 - - - - - - -
23/08:00am 15.1 SSE 8 10 1018.6 - 0.0 - - - - - - -
23/07:30am 14.8 SE 9 14 1018.6 - 0.0 - - - - - - -
23/07:00am 14.8 SSE 12 17 1018.6 - 0.0 - - - - - - -
23/06:30am 14.8 SSE 14 20 1018.3 - 0.0 - - - - - - -
23/06:00am 14.8 SSE 15 19 1018.1 - 0.0 - - - - - - -
23/05:30am 14.9 SSE 14 18 1018.3 - 0.0 - - - - - - -
23/05:00am 14.9 SSE 13 18 1018.3 - 0.0 - - - - - - -
23/04:30am 14.8 SSE 15 21 1018.3 - 0.0 - - - - - - -
23/04:00am 14.8 SSE 14 20 1018.3 - 0.0 - - - - - - -
23/03:30am 14.7 SSE 15 21 1018.6 - 0.0 - - - - - - -
23/03:00am 14.5 SSE 14 19 1018.8 - 0.0 - - - - - - -
23/02:30am 14.5 SSE 14 19 1019.0 - 0.0 - - - - - - -
23/02:00am 14.5 SSE 13 19 1019.6 - 0.0 - - - - - - -
23/01:30am 14.6 S 14 19 1019.8 - 0.0 - - - - - - -
23/01:00am 14.6 S 14 18 1020.1 - 0.0 - - - - - - -
23/12:30am 14.7 S 14 18 1020.4 - 0.0 - - - - - - -
23/12:00am 14.8 SSE 14 19 1020.3 - 0.0 - - - - - - -

Other Formats:

Comma delimited format used in spreadsheet applications
http://www.bom.gov.au/fwo/IDS60701/IDS60701.94809.axf

JavaScript Object Notation format (JSON) in row-major order
http://www.bom.gov.au/fwo/IDS60701/IDS60701.94809.json